地図

経路データ

SID SEASON NUMBER BASIN SUBBASIN NAME ISO_TIME NATURE LAT LON WMO_WIND WMO_PRES WMO_AGENCY TRACK_TYPE DIST2LAND LANDFALL IFLAG USA_AGENCY USA_ATCF_ID USA_LAT USA_LON USA_RECORD USA_STATUS USA_WIND USA_PRES USA_SSHS USA_R34_NE USA_R34_SE USA_R34_SW USA_R34_NW USA_R50_NE USA_R50_SE USA_R50_SW USA_R50_NW USA_R64_NE USA_R64_SE USA_R64_SW USA_R64_NW USA_POCI USA_ROCI USA_RMW USA_EYE TOKYO_LAT TOKYO_LON TOKYO_GRADE TOKYO_WIND TOKYO_PRES TOKYO_R50_DIR TOKYO_R50_LONG TOKYO_R50_SHORT TOKYO_R30_DIR TOKYO_R30_LONG TOKYO_R30_SHORT TOKYO_LAND CMA_LAT CMA_LON CMA_CAT CMA_WIND CMA_PRES HKO_LAT HKO_LON HKO_CAT HKO_WIND HKO_PRES NEWDELHI_LAT NEWDELHI_LON NEWDELHI_GRADE NEWDELHI_WIND NEWDELHI_PRES NEWDELHI_CI NEWDELHI_DP NEWDELHI_POCI REUNION_LAT REUNION_LON REUNION_TYPE REUNION_WIND REUNION_PRES REUNION_TNUM REUNION_CI REUNION_RMW REUNION_R34_NE REUNION_R34_SE REUNION_R34_SW REUNION_R34_NW REUNION_R50_NE REUNION_R50_SE REUNION_R50_SW REUNION_R50_NW REUNION_R64_NE REUNION_R64_SE REUNION_R64_SW REUNION_R64_NW BOM_LAT BOM_LON BOM_TYPE BOM_WIND BOM_PRES BOM_TNUM BOM_CI BOM_RMW BOM_R34_NE BOM_R34_SE BOM_R34_SW BOM_R34_NW BOM_R50_NE BOM_R50_SE BOM_R50_SW BOM_R50_NW BOM_R64_NE BOM_R64_SE BOM_R64_SW BOM_R64_NW BOM_ROCI BOM_POCI BOM_EYE BOM_POS_METHOD BOM_PRES_METHOD NADI_LAT NADI_LON NADI_CAT NADI_WIND NADI_PRES WELLINGTON_LAT WELLINGTON_LON WELLINGTON_WIND WELLINGTON_PRES DS824_LAT DS824_LON DS824_STAGE DS824_WIND DS824_PRES TD9636_LAT TD9636_LON TD9636_STAGE TD9636_WIND TD9636_PRES TD9635_LAT TD9635_LON TD9635_WIND TD9635_PRES TD9635_ROCI NEUMANN_LAT NEUMANN_LON NEUMANN_CLASS NEUMANN_WIND NEUMANN_PRES MLC_LAT MLC_LON MLC_CLASS MLC_WIND MLC_PRES USA_GUST BOM_GUST BOM_GUST_PER REUNION_GUST REUNION_GUST_PER USA_SEAHGT USA_SEARAD_NE USA_SEARAD_SE USA_SEARAD_SW USA_SEARAD_NW STORM_SPEED STORM_DIR
1859335S14043 1860 30 SI MM NOT_NAMED 1859-12-01 06:00:00 NR -13.6000 43.3000 reunion main 288 274 _____O________ -1 -13.6000 43.3000 99 9.90000 4 226
1859335S14043 1860 30 SI MM NOT_NAMED 1859-12-01 09:00:00 NR -13.7385 43.1555 main 274 246 _____P________ -1 -13.7385 43.1555 99 4 225
1859335S14043 1860 30 SI MM NOT_NAMED 1859-12-01 12:00:00 NR -13.8769 43.0115 main 246 233 _____P________ -1 -13.8769 43.0115 99 4 225
1859335S14043 1860 30 SI MM NOT_NAMED 1859-12-01 15:00:00 NR -14.0150 42.8689 main 233 209 _____P________ -1 -14.0150 42.8689 99 4 225
1859335S14043 1860 30 SI MM NOT_NAMED 1859-12-01 18:00:00 NR -14.1529 42.7282 main 207 195 _____P________ -1 -14.1529 42.7282 99 4 224
1859335S14043 1860 30 SI MM NOT_NAMED 1859-12-01 21:00:00 NR -14.2904 42.5902 main 195 183 _____P________ -1 -14.2904 42.5902 99 4 224
1859335S14043 1860 30 SI MM NOT_NAMED 1859-12-02 00:00:00 NR -14.4274 42.4557 main 183 161 _____P________ -1 -14.4274 42.4557 99 4 223
1859335S14043 1860 30 SI MM NOT_NAMED 1859-12-02 03:00:00 NR -14.5640 42.3254 main 161 150 _____P________ -1 -14.5640 42.3254 99 4 222
1859335S14043 1860 30 SI MM NOT_NAMED 1859-12-02 06:00:00 NR -14.7000 42.2000 reunion main 150 139 _____O________ -1 -14.7000 42.2000 99 9.90000 4 221
1859335S14043 1860 30 SI MM NOT_NAMED 1859-12-02 09:00:00 NR -14.8355 42.0799 main 139 128 _____P________ -1 -14.8355 42.0799 99 4 220
1859335S14043 1860 30 SI MM NOT_NAMED 1859-12-02 12:00:00 NR -14.9708 41.9644 main 128 118 _____P________ -1 -14.9708 41.9644 99 4 219
1859335S14043 1860 30 SI MM NOT_NAMED 1859-12-02 15:00:00 NR -15.1062 41.8521 main 118 99 _____P________ -1 -15.1062 41.8521 99 3 218
1859335S14043 1860 30 SI MM NOT_NAMED 1859-12-02 18:00:00 NR -15.2423 41.7420 main 99 96 _____P________ -1 -15.2423 41.7420 99 3 218
1859335S14043 1860 30 SI MM NOT_NAMED 1859-12-02 21:00:00 NR -15.3793 41.6330 main 96 93 _____P________ -1 -15.3793 41.6330 99 3 217
1859335S14043 1860 30 SI MM NOT_NAMED 1859-12-03 00:00:00 NR -15.5176 41.5237 main 93 88 _____P________ -1 -15.5176 41.5237 99 4 218
1859335S14043 1860 30 SI MM NOT_NAMED 1859-12-03 03:00:00 NR -15.6578 41.4131 main 92 82 _____P________ -1 -15.6578 41.4131 99 4 218
1859335S14043 1860 30 SI MM NOT_NAMED 1859-12-03 06:00:00 NR -15.8000 41.3000 reunion main 87 85 _____O________ -1 -15.8000 41.3000 99 9.90000 4 218
1859335S14043 1860 30 SI MM NOT_NAMED 1859-12-03 09:00:00 NR -15.9472 41.1796 main 85 82 _____P________ -1 -15.9472 41.1796 99 4 218
1859335S14043 1860 30 SI MM NOT_NAMED 1859-12-03 12:00:00 NR -16.0968 41.0571 main 87 77 _____P________ -1 -16.0968 41.0571 99 4 218
1859335S14043 1860 30 SI MM NOT_NAMED 1859-12-03 15:00:00 NR -16.2480 40.9329 main 77 77 _____P________ -1 -16.2480 40.9329 99 4 219
1859335S14043 1860 30 SI MM NOT_NAMED 1859-12-03 18:00:00 NR -16.3999 40.8074 main 85 81 _____P________ -1 -16.3999 40.8074 99 4 218
1859335S14043 1860 30 SI MM NOT_NAMED 1859-12-03 21:00:00 NR -16.5519 40.6809 main 87 78 _____P________ -1 -16.5519 40.6809 99 4 219
1859335S14043 1860 30 SI MM NOT_NAMED 1859-12-04 00:00:00 NR -16.7031 40.5539 main 85 72 _____P________ -1 -16.7031 40.5539 99 4 219
1859335S14043 1860 30 SI MM NOT_NAMED 1859-12-04 03:00:00 NR -16.8527 40.4268 main 78 69 _____P________ -1 -16.8527 40.4268 99 4 219
1859335S14043 1860 30 SI MM NOT_NAMED 1859-12-04 06:00:00 NR -17.0000 40.3000 reunion main 77 77 _____O________ -1 -17.0000 40.3000 99 9.90000 4 219
1859335S14043 1860 30 SI MM NOT_NAMED 1859-12-04 09:00:00 NR -17.1444 40.1738 main 79 79 _____P________ -1 -17.1444 40.1738 99 4 220
1859335S14043 1860 30 SI MM NOT_NAMED 1859-12-04 12:00:00 NR -17.2860 40.0481 main 89 89 _____P________ -1 -17.2860 40.0481 99 4 220
1859335S14043 1860 30 SI MM NOT_NAMED 1859-12-04 15:00:00 NR -17.4254 39.9229 main 92 92 _____P________ -1 -17.4254 39.9229 99 4 221
1859335S14043 1860 30 SI MM NOT_NAMED 1859-12-04 18:00:00 NR -17.5627 39.7980 main 100 92 _____P________ -1 -17.5627 39.7980 99 4 221
1859335S14043 1860 30 SI MM NOT_NAMED 1859-12-04 21:00:00 NR -17.6985 39.6734 main 100 94 _____P________ -1 -17.6985 39.6734 99 4 221
1859335S14043 1860 30 SI MM NOT_NAMED 1859-12-05 00:00:00 NR -17.8330 39.5489 main 99 99 _____P________ -1 -17.8330 39.5489 99 4 222
1859335S14043 1860 30 SI MM NOT_NAMED 1859-12-05 03:00:00 NR -17.9667 39.4245 main 116 113 _____P________ -1 -17.9667 39.4245 99 4 222
1859335S14043 1860 30 SI MM NOT_NAMED 1859-12-05 06:00:00 NR -18.1000 39.3000 reunion main 124 _____O________ -1 -18.1000 39.3000 99 9.90000 4 221

IBTrACS Databaseについて

本データベースは、米国NOAAが公開する1842年以降の世界の熱帯低気圧のベストトラックデータアーカイブInternational Best Track Archive for Climate Stewardship (IBTrACS)を、ウェブで閲覧しやすい形式に変換したものです。

最終更新日:2021-10-08